Time;durP1;ratioP1;P1;durP2;ratioP2;P2;SDS_P1;SDS_P2;PMS_P1;PMS_P2;Temp;Humidity;BMP_temperature;BMP_pressure;BME280_temperature;BME280_humidity;BME280_pressure;Samples;Min_cycle;Max_cycle;Signal;HPM_P1;HPM_P2
2022/09/09 00:01:43;;;;;;;0.08;0.08;;;;;;;19.39;67.40;100018.13;7363591;19;20010;-60
2022/09/09 00:04:25;;;;;;;0.03;0.03;;;;;;;19.33;67.49;100013.28;7258989;19;2004323;-61
2022/09/09 00:06:57;;;;;;;0.00;0.00;;;;;;;19.30;68.63;100017.91;7363410;19;20007;-62
2022/09/09 00:09:27;;;;;;;0.00;0.00;;;;;;;19.26;68.36;100017.31;7364400;19;20018;-61
2022/09/09 00:12:03;;;;;;;0.00;0.00;;;;;;;19.19;68.39;100006.28;7361003;19;20014;-61
2022/09/09 00:14:53;;;;;;;0.00;0.00;;;;;;;19.22;68.51;100025.56;7361950;19;20014;-61
2022/09/09 00:17:45;;;;;;;0.10;0.10;;;;;;;19.21;67.75;100024.72;7362735;19;20014;-61
2022/09/09 00:20:13;;;;;;;0.00;0.00;;;;;;;19.16;69.55;100021.56;7260786;19;2004453;-61
2022/09/09 00:22:42;;;;;;;0.00;0.00;;;;;;;19.16;68.89;100024.19;7361227;19;20006;-61
2022/09/09 00:25:48;;;;;;;0.00;0.00;;;;;;;19.15;68.01;100023.31;7360380;19;20014;-61
2022/09/09 00:28:19;;;;;;;0.00;0.00;;;;;;;19.13;68.37;100019.09;7262898;19;2004218;-61
2022/09/09 00:30:48;;;;;;;0.10;0.10;;;;;;;19.07;69.15;100019.53;7362057;19;20018;-61
2022/09/09 00:33:16;;;;;;;0.00;0.00;;;;;;;18.96;69.20;100011.47;7362993;19;20888;-61
2022/09/09 00:35:47;;;;;;;0.00;0.00;;;;;;;19.04;68.87;100022.38;7362179;19;20022;-60
2022/09/09 00:38:20;;;;;;;0.00;0.00;;;;;;;19.01;68.21;100019.94;7362181;19;20015;-62
2022/09/09 00:40:50;;;;;;;0.00;0.00;;;;;;;18.96;68.85;100011.47;7364024;19;20014;-61
2022/09/09 00:43:18;;;;;;;0.08;0.08;;;;;;;18.89;69.42;100011.03;7360517;19;20043;-61
2022/09/09 00:46:06;;;;;;;0.00;0.00;;;;;;;18.89;68.93;100009.25;7361669;19;20487;-61
2022/09/09 00:49:09;;;;;;;0.00;0.00;;;;;;;18.85;68.74;100002.47;7362594;19;20022;-61
2022/09/09 00:51:35;;;;;;;0.00;0.00;;;;;;;18.79;69.47;99999.41;7256929;19;2004573;-60
2022/09/09 00:54:33;;;;;;;0.00;0.00;;;;;;;18.80;68.81;99999.28;7359727;19;20015;-61
2022/09/09 00:57:07;;;;;;;0.03;0.03;;;;;;;18.77;69.03;99996.88;7258642;19;2004241;-61
2022/09/09 00:59:39;;;;;;;0.00;0.00;;;;;;;18.75;69.87;100000.53;7361575;19;20470;-61
2022/09/09 01:02:37;;;;;;;0.00;0.00;;;;;;;18.60;68.83;99968.00;7361707;19;20014;-61
2022/09/09 01:05:13;;;;;;;0.00;0.00;;;;;;;18.71;69.47;99999.09;7250697;19;2004462;-61
2022/09/09 01:07:46;;;;;;;0.00;0.00;;;;;;;18.65;69.87;99995.00;7359328;19;20074;-61
2022/09/09 01:10:34;;;;;;;0.10;0.10;;;;;;;18.65;69.53;99997.63;7360987;19;20015;-61
2022/09/09 01:13:05;;;;;;;0.00;0.00;;;;;;;18.56;69.85;99990.34;7362102;19;20010;-61
2022/09/09 01:15:32;;;;;;;0.00;0.00;;;;;;;18.55;70.19;100000.09;7360517;19;20577;-61
2022/09/09 01:18:12;;;;;;;0.08;0.08;;;;;;;18.54;70.19;99997.53;7356314;19;20062;-61
2022/09/09 01:20:56;;;;;;;0.00;0.00;;;;;;;18.52;69.41;99996.78;7360015;19;20013;-60
2022/09/09 01:23:59;;;;;;;0.00;0.00;;;;;;;18.50;69.11;100001.31;7360254;19;20351;-60
2022/09/09 01:26:41;;;;;;;0.00;0.00;;;;;;;18.48;69.67;100003.22;7258737;19;2004393;-61
2022/09/09 01:29:13;;;;;;;0.00;0.00;;;;;;;18.45;70.10;99998.13;7360335;19;20025;-61
2022/09/09 01:31:51;;;;;;;0.00;0.00;;;;;;;18.37;70.75;99986.28;7359559;19;20014;-61
2022/09/09 01:34:16;;;;;;;0.00;0.00;;;;;;;18.36;71.07;99989.88;7358772;19;20014;-61
2022/09/09 01:37:04;;;;;;;0.00;0.00;;;;;;;18.42;69.36;99989.47;7362228;19;20404;-61
2022/09/09 01:39:31;;;;;;;0.00;0.00;;;;;;;18.34;70.36;99986.47;7258655;19;2004508;-61
2022/09/09 01:41:57;;;;;;;0.10;0.10;;;;;;;18.37;70.51;99996.84;7358834;19;20418;-61
2022/09/09 01:44:23;;;;;;;0.00;0.00;;;;;;;18.36;70.31;99999.59;7361313;19;20093;-61
2022/09/09 01:46:48;;;;;;;0.00;0.00;;;;;;;18.35;70.97;100008.50;7359811;19;20773;-61
2022/09/09 01:49:14;;;;;;;0.00;0.00;;;;;;;18.33;70.68;99995.34;7360776;19;20037;-61
2022/09/09 01:51:42;;;;;;;0.00;0.00;;;;;;;18.28;70.99;99997.47;7358640;19;20015;-61
2022/09/09 01:54:08;;;;;;;0.08;0.08;;;;;;;18.32;70.60;100000.75;7359674;19;20045;-61
2022/09/09 01:56:55;;;;;;;0.00;0.00;;;;;;;18.34;70.16;100002.31;7360321;19;20467;-61
2022/09/09 01:59:36;;;;;;;0.00;0.00;;;;;;;18.34;70.06;99997.03;7351202;19;20013;-61
2022/09/09 02:02:15;;;;;;;0.00;0.00;;;;;;;18.33;70.27;99995.34;7358647;19;20006;-61
2022/09/09 02:04:54;;;;;;;0.00;0.00;;;;;;;18.33;69.75;99994.50;7357285;19;20036;-61
2022/09/09 02:07:37;;;;;;;0.10;0.10;;;;;;;18.32;69.67;99990.19;7358147;19;20010;-61
2022/09/09 02:10:22;;;;;;;0.00;0.00;;;;;;;18.29;69.88;99988.56;7357470;19;20086;-61
2022/09/09 02:12:55;;;;;;;0.00;0.00;;;;;;;18.28;70.34;99992.16;7357831;19;20093;-61
2022/09/09 02:15:40;;;;;;;0.00;0.00;;;;;;;18.28;70.05;99997.47;7358820;19;20022;-61
2022/09/09 02:18:08;;;;;;;0.00;0.00;;;;;;;18.19;70.36;99982.19;7364442;19;20017;-61
2022/09/09 02:20:36;;;;;;;0.10;0.10;;;;;;;18.24;70.89;99993.31;7362771;19;20021;-61
2022/09/09 02:23:04;;;;;;;0.00;0.00;;;;;;;18.23;70.73;99996.06;7362965;19;21008;-61
2022/09/09 02:25:29;;;;;;;;;;;;;;;18.25;68.96;100000.31;7365622;19;20045;-61
2022/09/09 02:27:58;;;;;;;0.00;0.00;;;;;;;18.18;70.53;100001.66;7364316;19;21344;-61
2022/09/09 02:30:24;;;;;;;0.00;0.00;;;;;;;18.08;70.73;99974.13;7363464;19;20017;-61
2022/09/09 02:32:53;;;;;;;0.00;0.00;;;;;;;18.14;71.19;99992.22;7364146;19;20041;-62
2022/09/09 02:35:24;;;;;;;0.00;0.00;;;;;;;18.07;71.21;99977.72;7359472;19;20027;-61
2022/09/09 02:37:53;;;;;;;0.00;0.00;;;;;;;18.13;71.06;99987.88;7363844;19;20007;-61
2022/09/09 02:40:18;;;;;;;0.00;0.00;;;;;;;18.03;71.03;99981.50;7363650;19;20022;-61
2022/09/09 02:42:46;;;;;;;0.00;0.00;;;;;;;18.10;71.69;99985.47;7364951;19;20014;-62
2022/09/09 02:45:20;;;;;;;0.00;0.00;;;;;;;18.12;71.09;99992.34;7361409;19;20007;-60
2022/09/09 02:47:48;;;;;;;0.00;0.00;;;;;;;18.08;71.59;99992.63;7364687;19;20014;-61
2022/09/09 02:50:32;;;;;;;0.00;0.00;;;;;;;18.10;70.29;99990.75;7363291;19;20763;-61
2022/09/09 02:53:15;;;;;;;0.00;0.00;;;;;;;18.07;70.86;99988.28;7363269;19;20108;-60
2022/09/09 02:55:57;;;;;;;0.00;0.00;;;;;;;18.08;70.61;99982.06;7363807;19;20034;-61
2022/09/09 02:58:24;;;;;;;0.00;0.00;;;;;;;18.04;71.66;99983.19;7363113;19;20088;-61
2022/09/09 03:00:50;;;;;;;0.00;0.00;;;;;;;18.04;72.33;99972.63;7365026;19;20022;-61
2022/09/09 03:03:17;;;;;;;0.00;0.00;;;;;;;18.01;71.79;99983.41;7348923;19;20010;-61
2022/09/09 03:05:44;;;;;;;0.10;0.10;;;;;;;18.00;71.74;99982.56;7362804;19;20031;-61
2022/09/09 03:08:10;;;;;;;0.10;0.10;;;;;;;17.99;71.87;99967.63;7359847;19;20019;-61
2022/09/09 03:10:36;;;;;;;0.00;0.00;;;;;;;17.98;72.48;99978.31;7366089;19;20065;-61
2022/09/09 03:13:04;;;;;;;0.00;0.00;;;;;;;17.87;72.61;99964.00;7364739;19;20706;-62
2022/09/09 03:15:30;;;;;;;0.00;0.00;;;;;;;17.94;72.61;99984.75;7362488;19;20014;-61
2022/09/09 03:17:57;;;;;;;0.00;0.00;;;;;;;17.92;72.79;99973.44;7360772;19;20676;-61
2022/09/09 03:20:27;;;;;;;0.00;0.00;;;;;;;17.85;72.58;99968.56;7359966;19;20489;-61
2022/09/09 03:22:56;;;;;;;0.00;0.00;;;;;;;17.88;72.45;99972.78;7363568;19;20573;-60
2022/09/09 03:25:26;;;;;;;0.00;0.00;;;;;;;17.84;73.03;99972.16;7362358;19;20052;-62
2022/09/09 03:27:54;;;;;;;0.00;0.00;;;;;;;17.84;72.89;99976.56;7363099;19;20010;-61
2022/09/09 03:30:23;;;;;;;0.00;0.00;;;;;;;17.80;73.44;99975.94;7362654;19;20014;-61
2022/09/09 03:32:49;;;;;;;0.00;0.00;;;;;;;17.77;73.16;99977.91;7366820;19;20713;-61
2022/09/09 03:35:15;;;;;;;0.00;0.00;;;;;;;17.75;73.13;99971.91;7363825;19;20010;-61
2022/09/09 03:37:41;;;;;;;0.00;0.00;;;;;;;17.70;73.95;99974.78;7365764;19;20002;-60
2022/09/09 03:40:09;;;;;;;0.00;0.00;;;;;;;17.68;74.00;99976.66;7365176;19;20013;-61
2022/09/09 03:42:36;;;;;;;0.00;0.00;;;;;;;17.61;73.48;99967.44;7360709;19;20022;-61
2022/09/09 03:45:03;;;;;;;0.00;0.00;;;;;;;17.61;73.81;99967.44;7364630;19;20014;-61
2022/09/09 03:47:28;;;;;;;0.00;0.00;;;;;;;17.59;73.90;99967.56;7366334;19;20017;-60
2022/09/09 03:49:54;;;;;;;0.00;0.00;;;;;;;17.54;74.03;99963.53;7366835;19;20010;-61
2022/09/09 03:52:21;;;;;;;0.00;0.00;;;;;;;17.53;74.02;99967.06;7366080;19;20017;-60
2022/09/09 03:54:47;;;;;;;0.10;0.10;;;;;;;17.53;74.37;99972.34;7363377;19;20905;-61
2022/09/09 03:57:16;;;;;;;0.00;0.00;;;;;;;17.45;74.28;99958.81;7366732;19;21048;-61
2022/09/09 03:59:42;;;;;;;0.10;0.10;;;;;;;17.52;74.28;99979.44;7365791;19;20041;-61
2022/09/09 04:02:07;;;;;;;0.00;0.00;;;;;;;17.50;74.35;99981.34;7368267;19;20010;-61
2022/09/09 04:04:32;;;;;;;0.00;0.00;;;;;;;17.37;74.48;99965.41;7363149;19;20014;-61
2022/09/09 04:06:58;;;;;;;0.10;0.10;;;;;;;17.41;73.92;99973.97;7367939;19;20010;-61
2022/09/09 04:09:23;;;;;;;0.00;0.00;;;;;;;17.46;74.47;99981.63;7364222;19;20010;-61
2022/09/09 04:11:49;;;;;;;0.00;0.00;;;;;;;17.44;74.96;99979.09;7366677;19;20027;-61
2022/09/09 04:14:14;;;;;;;0.00;0.00;;;;;;;17.34;74.68;99968.25;7364111;19;20039;-60
2022/09/09 04:16:44;;;;;;;0.00;0.00;;;;;;;17.41;74.86;99984.53;7367363;19;20042;-61
2022/09/09 04:19:13;;;;;;;0.00;0.00;;;;;;;17.37;74.20;99973.31;7364492;19;20010;-60
2022/09/09 04:21:42;;;;;;;0.00;0.00;;;;;;;17.30;74.59;99969.38;7366416;19;20014;-61
2022/09/09 04:24:08;;;;;;;0.00;0.00;;;;;;;17.36;75.01;99981.34;7362931;19;20010;-61
2022/09/09 04:26:35;;;;;;;0.10;0.10;;;;;;;17.36;74.85;99984.81;7364939;19;20698;-61
2022/09/09 04:29:00;;;;;;;0.00;0.00;;;;;;;17.35;75.27;99990.22;7365016;19;20070;-61
2022/09/09 04:31:26;;;;;;;0.00;0.00;;;;;;;17.36;75.55;99992.75;7365428;19;20479;-61
2022/09/09 04:33:51;;;;;;;0.00;0.00;;;;;;;17.32;75.06;99980.69;7362076;19;20683;-62
2022/09/09 04:36:21;;;;;;;0.00;0.00;;;;;;;17.35;75.55;99991.06;7364354;19;20011;-61
2022/09/09 04:38:47;;;;;;;0.00;0.00;;;;;;;17.34;75.36;99989.38;7364114;19;20078;-61
2022/09/09 04:41:12;;;;;;;0.00;0.00;;;;;;;17.29;74.71;99980.88;7363594;19;20129;-61
2022/09/09 04:43:39;;;;;;;0.00;0.00;;;;;;;17.27;75.43;99984.53;7363325;19;20014;-61
2022/09/09 04:46:05;;;;;;;0.00;0.00;;;;;;;17.33;75.58;99997.34;7365196;19;20022;-62
2022/09/09 04:48:31;;;;;;;0.00;0.00;;;;;;;17.32;75.52;99985.94;7363792;19;20101;-62
2022/09/09 04:51:09;;;;;;;0.00;0.00;;;;;;;17.34;74.47;99997.28;7363707;19;20181;-62
2022/09/09 04:53:34;;;;;;;0.05;0.05;;;;;;;17.28;75.58;99989.72;7365346;19;20006;-61
2022/09/09 04:56:10;;;;;;;0.00;0.00;;;;;;;17.31;74.42;99993.97;7363414;19;20073;-61
2022/09/09 04:58:36;;;;;;;0.00;0.00;;;;;;;17.23;75.78;99981.25;7363640;19;20364;-61
2022/09/09 05:01:09;;;;;;;0.00;0.00;;;;;;;17.29;75.11;99986.16;7363117;19;20031;-61
2022/09/09 05:03:35;;;;;;;0.00;0.00;;;;;;;17.27;75.62;99988.03;7363952;19;20014;-61
2022/09/09 05:06:20;;;;;;;0.00;0.00;;;;;;;17.30;74.03;99990.50;7363251;19;20006;-61
2022/09/09 05:08:46;;;;;;;0.00;0.00;;;;;;;17.26;75.58;99996.91;7365204;19;20026;-61
2022/09/09 05:11:15;;;;;;;0.00;0.00;;;;;;;17.28;75.35;99987.06;7361716;19;20755;-61
2022/09/09 05:13:40;;;;;;;0.00;0.00;;;;;;;17.25;75.52;99997.84;7364738;19;20006;-61
2022/09/09 05:16:06;;;;;;;0.00;0.00;;;;;;;17.24;76.01;99998.78;7362905;19;20006;-61
2022/09/09 05:18:31;;;;;;;0.00;0.00;;;;;;;17.18;76.15;99990.38;7363748;19;20014;-61
2022/09/09 05:21:00;;;;;;;0.05;0.05;;;;;;;17.26;75.73;100010.09;7360955;19;20010;-61
2022/09/09 05:23:25;;;;;;;0.00;0.00;;;;;;;17.23;75.83;100007.63;7363952;19;20007;-61
2022/09/09 05:25:56;;;;;;;0.00;0.00;;;;;;;17.27;76.11;100003.88;7362449;19;22340;-61
2022/09/09 05:28:24;;;;;;;0.00;0.00;;;;;;;17.21;76.21;99998.97;7365137;19;20010;-61
2022/09/09 05:31:11;;;;;;;;;;;;;;;17.31;73.80;100005.38;7361322;19;20086;-61
2022/09/09 05:33:37;;;;;;;0.00;0.00;;;;;;;17.29;75.54;100007.28;7358868;19;19990;-62
2022/09/09 05:36:22;;;;;;;0.00;0.00;;;;;;;17.34;74.44;100010.47;7361306;19;20106;-61
2022/09/09 05:38:47;;;;;;;0.00;0.00;;;;;;;17.30;75.95;100018.66;7364558;19;20451;-61
2022/09/09 05:41:17;;;;;;;0.00;0.00;;;;;;;17.30;75.91;100022.16;7362018;19;20101;-61
2022/09/09 05:43:47;;;;;;;0.00;0.00;;;;;;;17.28;75.79;100009.97;7363982;19;20014;-61
2022/09/09 05:46:18;;;;;;;0.00;0.00;;;;;;;17.34;75.21;100015.75;7360703;19;20031;-60
2022/09/09 05:48:46;;;;;;;0.10;0.10;;;;;;;17.34;75.69;100025.47;7362114;19;20010;-61
2022/09/09 05:51:17;;;;;;;0.00;0.00;;;;;;;17.33;76.22;100023.75;7366722;19;20024;-61
2022/09/09 05:53:44;;;;;;;0.10;0.10;;;;;;;17.35;75.74;100030.63;7370804;19;20022;-61
2022/09/09 05:56:17;;;;;;;0.00;0.00;;;;;;;17.37;75.45;100028.75;7368499;19;20010;-61
2022/09/09 05:58:43;;;;;;;0.00;0.00;;;;;;;17.35;75.52;100028.00;7358147;19;20014;-61
2022/09/09 06:01:21;;;;;;;0.00;0.00;;;;;;;17.41;75.08;100041.75;7369678;19;20062;-61
2022/09/09 06:03:47;;;;;;;;;;;;;;;17.42;73.52;100039.03;7367071;19;20014;-61
2022/09/09 06:06:17;;;;;;;0.00;0.00;;;;;;;17.40;75.23;100045.34;7366591;19;19918;-61
2022/09/09 06:08:45;;;;;;;0.00;0.00;;;;;;;17.41;75.46;100044.41;7366685;19;20010;-62
2022/09/09 06:11:15;;;;;;;0.00;0.00;;;;;;;17.40;75.78;100050.63;7365409;19;20014;-61
2022/09/09 06:13:41;;;;;;;0.00;0.00;;;;;;;17.38;76.22;100048.06;7366525;19;20014;-61
2022/09/09 06:16:13;;;;;;;0.00;0.00;;;;;;;17.41;75.39;100050.53;7366830;19;20577;-62
2022/09/09 06:18:40;;;;;;;0.00;0.00;;;;;;;17.38;76.22;100051.53;7365428;19;20592;-61
2022/09/09 06:21:09;;;;;;;0.00;0.00;;;;;;;17.42;76.31;100059.28;7364171;19;20062;-61
2022/09/09 06:23:35;;;;;;;0.00;0.00;;;;;;;17.41;76.43;100068.16;7366656;19;20002;-61
2022/09/09 06:26:34;;;;;;;0.00;0.00;;;;;;;17.49;75.20;100071.19;7365905;19;20021;-61
2022/09/09 06:29:00;;;;;;;0.00;0.00;;;;;;;17.47;76.18;100067.78;7262770;19;2004519;-61
2022/09/09 06:31:30;;;;;;;0.05;0.05;;;;;;;17.50;76.31;100075.53;7367049;19;20022;-61
2022/09/09 06:33:56;;;;;;;0.00;0.00;;;;;;;17.50;76.02;100078.16;7365648;19;20526;-61
2022/09/09 06:36:27;;;;;;;0.00;0.00;;;;;;;17.44;76.14;100060.06;7362675;19;20030;-61
2022/09/09 06:38:53;;;;;;;0.00;0.00;;;;;;;17.56;76.20;100083.06;7364754;19;20499;-61
2022/09/09 06:41:19;;;;;;;0.00;0.00;;;;;;;17.58;76.24;100092.56;7365493;19;20017;-61
2022/09/09 06:43:48;;;;;;;0.10;0.10;;;;;;;17.62;75.81;100094.06;7365273;19;20022;-61
2022/09/09 06:46:19;;;;;;;0.00;0.00;;;;;;;17.64;75.94;100097.50;7355182;19;20463;-61
2022/09/09 06:48:45;;;;;;;0.00;0.00;;;;;;;17.66;75.88;100097.38;7363489;19;20499;-61
2022/09/09 06:51:13;;;;;;;0.00;0.00;;;;;;;17.70;76.16;100106.81;7364294;19;20857;-61
2022/09/09 06:53:40;;;;;;;0.00;0.00;;;;;;;17.71;76.24;100103.22;7362064;19;20499;-61
2022/09/09 06:56:23;;;;;;;0.00;0.00;;;;;;;17.77;75.17;100105.53;7360971;19;20627;-61
2022/09/09 06:58:51;;;;;;;0.00;0.00;;;;;;;17.64;76.02;100094.00;7366595;19;20018;-61
2022/09/09 07:01:23;;;;;;;0.00;0.00;;;;;;;17.78;75.74;100120.41;7363578;19;20013;-61
2022/09/09 07:03:51;;;;;;;0.00;0.00;;;;;;;17.80;75.64;100122.97;7364908;19;20031;-62
2022/09/09 07:06:24;;;;;;;0.00;0.00;;;;;;;17.81;75.49;100120.25;7367226;19;20583;-61
2022/09/09 07:08:55;;;;;;;0.00;0.00;;;;;;;17.86;75.83;100130.53;7366411;19;20074;-61
2022/09/09 07:11:22;;;;;;;0.00;0.00;;;;;;;17.85;75.15;100131.47;7367735;19;20019;-61
2022/09/09 07:13:48;;;;;;;0.00;0.00;;;;;;;17.85;76.02;100137.59;7361795;19;20054;-61
2022/09/09 07:16:18;;;;;;;0.00;0.00;;;;;;;17.91;75.49;100135.53;7364382;19;20366;-61
2022/09/09 07:18:44;;;;;;;0.10;0.10;;;;;;;17.89;76.15;100143.53;7361600;19;20775;-61
2022/09/09 07:21:14;;;;;;;0.10;0.10;;;;;;;17.91;75.77;100136.38;7362895;19;20117;-61
2022/09/09 07:23:40;;;;;;;0.00;0.00;;;;;;;17.93;76.36;100141.56;7363831;19;20463;-61
2022/09/09 07:26:14;;;;;;;0.00;0.00;;;;;;;17.98;75.26;100139.47;7366485;19;20059;-61
2022/09/09 07:28:41;;;;;;;0.00;0.00;;;;;;;17.97;75.64;100151.00;7338112;19;20039;-61
2022/09/09 07:31:07;;;;;;;0.00;0.00;;;;;;;18.01;76.05;100152.50;7353175;19;20021;-62
2022/09/09 07:33:34;;;;;;;0.00;0.00;;;;;;;18.01;75.96;100152.50;7360150;19;20927;-62
2022/09/09 07:36:27;;;;;;;0.10;0.10;;;;;;;18.14;76.22;100159.53;7364670;19;20010;-61
2022/09/09 07:38:58;;;;;;;0.00;0.00;;;;;;;18.25;75.65;100169.47;7263512;19;2004755;-61
2022/09/09 07:41:26;;;;;;;0.00;0.00;;;;;;;18.32;75.61;100178.69;7358871;19;20078;-62
2022/09/09 07:43:55;;;;;;;0.10;0.10;;;;;;;18.32;75.99;100164.63;7364917;19;20010;-62
2022/09/09 07:46:23;;;;;;;0.08;0.08;;;;;;;18.48;75.84;100180.38;7363699;19;20594;-61
2022/09/09 07:48:52;;;;;;;0.10;0.10;;;;;;;18.51;75.90;100177.53;7366737;19;20749;-62
2022/09/09 07:51:31;;;;;;;0.00;0.00;;;;;;;18.61;75.06;100173.34;7367246;19;20054;-61
2022/09/09 07:53:59;;;;;;;0.00;0.00;;;;;;;18.64;75.85;100178.44;7362899;19;20010;-61
2022/09/09 07:56:26;;;;;;;0.00;0.00;;;;;;;18.71;75.36;100182.44;7365221;19;20099;-61
2022/09/09 07:58:53;;;;;;;0.10;0.10;;;;;;;18.70;75.47;100172.78;7365891;19;20495;-61
2022/09/09 08:01:28;;;;;;;0.00;0.00;;;;;;;18.89;75.26;100190.94;7364996;19;20082;-61
2022/09/09 08:03:59;;;;;;;0.10;0.10;;;;;;;18.88;75.63;100176.03;7364818;19;20010;-61
2022/09/09 08:06:26;;;;;;;0.00;0.00;;;;;;;18.98;75.58;100187.69;7363140;19;20007;-61
2022/09/09 08:08:52;;;;;;;;;;;;;;;19.20;74.37;100197.72;7366452;19;20014;-61
2022/09/09 08:11:18;;;;;;;0.00;0.00;;;;;;;19.22;74.59;100202.91;7363288;19;19911;-61
2022/09/09 08:13:44;;;;;;;0.05;0.05;;;;;;;19.31;74.77;100204.94;7362373;19;20634;-61
2022/09/09 08:16:13;;;;;;;0.00;0.00;;;;;;;19.40;74.45;100215.75;7363468;19;20471;-61
2022/09/09 08:18:39;;;;;;;0.00;0.00;;;;;;;19.43;74.49;100220.84;7364524;19;20044;-61
2022/09/09 08:21:12;;;;;;;0.10;0.10;;;;;;;19.53;74.33;100225.53;7365470;19;20015;-62
2022/09/09 08:23:42;;;;;;;0.00;0.00;;;;;;;19.58;73.75;100228.72;7363922;19;20070;-61
2022/09/09 08:26:11;;;;;;;0.00;0.00;;;;;;;19.63;73.61;100231.94;7363095;19;20043;-61
2022/09/09 08:28:37;;;;;;;0.00;0.00;;;;;;;19.64;74.15;100236.28;7362102;19;20014;-61
2022/09/09 08:31:14;;;;;;;0.00;0.00;;;;;;;19.74;73.51;100249.75;7362102;19;20074;-61
2022/09/09 08:33:41;;;;;;;0.10;0.10;;;;;;;19.69;73.47;100234.19;7363812;19;20031;-61
2022/09/09 08:36:09;;;;;;;0.10;0.10;;;;;;;19.79;73.27;100248.50;7362901;19;20026;-62
2022/09/09 08:38:37;;;;;;;0.10;0.10;;;;;;;19.78;72.98;100252.09;7360485;19;20011;-61
2022/09/09 08:41:27;;;;;;;0.10;0.10;;;;;;;19.87;72.94;100250.59;7361997;19;20022;-61
2022/09/09 08:44:05;;;;;;;0.00;0.00;;;;;;;19.87;73.00;100250.59;7357637;19;20017;-61
2022/09/09 08:46:42;;;;;;;0.00;0.00;;;;;;;19.86;73.37;100260.34;7363220;19;20015;-61
2022/09/09 08:49:34;;;;;;;0.00;0.00;;;;;;;19.91;73.04;100268.84;7364155;19;20014;-61
2022/09/09 08:52:01;;;;;;;0.10;0.10;;;;;;;19.89;73.65;100273.41;7258657;19;2004476;-62
2022/09/09 08:54:32;;;;;;;0.08;0.08;;;;;;;19.95;73.17;100275.63;7359322;19;20007;-62
2022/09/09 08:56:58;;;;;;;0.05;0.05;;;;;;;19.92;73.62;100270.56;7360538;19;21083;-61
2022/09/09 08:59:23;;;;;;;0.10;0.10;;;;;;;20.03;73.24;100279.56;7359401;19;20015;-62
2022/09/09 09:02:11;;;;;;;0.10;0.10;;;;;;;20.15;72.87;100281.38;7351430;19;20757;-62
2022/09/09 09:05:02;;;;;;;0.10;0.10;;;;;;;20.12;73.20;100287.75;7360692;19;20010;-61
2022/09/09 09:07:46;;;;;;;0.00;0.00;;;;;;;20.18;72.88;100291.78;7258869;19;2004309;-61
2022/09/09 09:10:42;;;;;;;0.00;0.00;;;;;;;20.30;72.79;100300.66;7362335;19;20459;-61
2022/09/09 09:13:18;;;;;;;0.07;0.07;;;;;;;20.29;72.88;100294.53;7263398;19;2004552;-61
2022/09/09 09:15:46;;;;;;;0.00;0.00;;;;;;;20.33;72.69;100305.78;7362598;19;20098;-61
2022/09/09 09:18:13;;;;;;;0.00;0.00;;;;;;;20.35;72.57;100304.69;7363587;19;20661;-61
2022/09/09 09:20:49;;;;;;;0.03;0.03;;;;;;;20.41;72.13;100312.22;7363115;19;20053;-61
2022/09/09 09:23:36;;;;;;;0.00;0.00;;;;;;;20.46;72.39;100304.81;7363690;19;20097;-62
2022/09/09 09:26:01;;;;;;;;;;;;;;;20.54;72.11;100314.06;7359947;19;20007;-61
2022/09/09 09:28:32;;;;;;;0.00;0.00;;;;;;;20.55;72.28;100308.63;7360851;19;19919;-61
2022/09/09 09:31:03;;;;;;;0.00;0.00;;;;;;;20.58;71.83;100315.50;7356717;19;20017;-62
2022/09/09 09:33:41;;;;;;;0.10;0.10;;;;;;;20.65;71.68;100316.81;7359392;19;20630;-61
2022/09/09 09:36:08;;;;;;;0.08;0.08;;;;;;;20.63;70.97;100324.00;7355820;19;20006;-61
2022/09/09 09:38:34;;;;;;;;;;;;;;;20.73;71.53;100327.69;7357245;19;20010;-61
2022/09/09 09:41:00;;;;;;;0.10;0.10;;;;;;;20.58;70.94;100310.22;7355645;19;19936;-61
2022/09/09 09:43:36;;;;;;;0.00;0.00;;;;;;;20.77;71.18;100338.97;7356652;19;20017;-61
2022/09/09 09:46:17;;;;;;;0.10;0.10;;;;;;;20.80;71.66;100331.63;7355695;19;20082;-62
2022/09/09 09:48:46;;;;;;;0.00;0.00;;;;;;;20.84;71.39;100343.72;7356917;19;20744;-61
2022/09/09 09:51:15;;;;;;;0.00;0.00;;;;;;;20.97;70.35;100343.69;7351200;19;20014;-61
2022/09/09 09:53:42;;;;;;;0.00;0.00;;;;;;;21.06;70.58;100347.50;7355062;19;20061;-61
2022/09/09 09:56:10;;;;;;;0.10;0.10;;;;;;;21.17;69.87;100352.88;7354993;19;20007;-61
2022/09/09 09:58:45;;;;;;;0.00;0.00;;;;;;;21.35;71.09;100356.06;7357665;19;20057;-61
2022/09/09 10:01:29;;;;;;;0.00;0.00;;;;;;;21.48;71.19;100349.69;7353311;19;20078;-61
2022/09/09 10:03:58;;;;;;;0.00;0.00;;;;;;;21.83;70.48;100362.19;7353467;19;20011;-61
2022/09/09 10:06:36;;;;;;;0.03;0.03;;;;;;;22.16;70.38;100366.81;7354192;19;20006;-61
2022/09/09 10:09:07;;;;;;;0.00;0.00;;;;;;;22.38;69.32;100365.16;7356628;19;20696;-61
2022/09/09 10:11:49;;;;;;;0.10;0.10;;;;;;;22.61;68.51;100352.69;7359835;19;20007;-61
2022/09/09 10:14:14;;;;;;;0.00;0.00;;;;;;;22.76;68.58;100364.81;7358201;19;20022;-61
2022/09/09 10:16:54;;;;;;;0.00;0.00;;;;;;;23.00;68.55;100362.03;7352953;19;20162;-60
2022/09/09 10:19:19;;;;;;;0.00;0.00;;;;;;;23.11;67.47;100362.00;7356890;19;20031;-61
2022/09/09 10:22:16;;;;;;;0.00;0.00;;;;;;;23.38;67.44;100361.63;7356427;19;20055;-62
2022/09/09 10:24:44;;;;;;;0.10;0.10;;;;;;;23.41;63.86;100369.34;7255319;19;2004594;-61
2022/09/09 10:27:47;;;;;;;0.10;0.10;;;;;;;23.60;66.32;100359.84;7356431;19;20565;-61
2022/09/09 10:30:24;;;;;;;0.08;0.08;;;;;;;23.62;65.83;100368.56;7255890;19;2004210;-61
2022/09/09 10:32:55;;;;;;;;;;;;;;;23.71;67.04;100370.50;7356544;19;20924;-61
2022/09/09 10:35:52;;;;;;;0.10;0.10;;;;;;;23.70;66.03;100382.13;7353824;19;19923;-61
2022/09/09 10:38:38;;;;;;;0.00;0.00;;;;;;;23.65;65.02;100377.19;7258886;19;2004298;-62
2022/09/09 10:41:20;;;;;;;0.10;0.10;;;;;;;23.61;64.66;100383.69;7365786;19;20022;-61
2022/09/09 10:43:56;;;;;;;0.10;0.10;;;;;;;23.50;65.39;100389.06;7364346;19;20102;-62
2022/09/09 10:46:41;;;;;;;0.00;0.00;;;;;;;23.36;64.86;100389.34;7363757;19;20014;-60
2022/09/09 10:49:31;;;;;;;0.00;0.00;;;;;;;23.34;64.98;100400.13;7365147;19;20022;-61
2022/09/09 10:52:20;;;;;;;0.10;0.10;;;;;;;23.25;64.44;100392.88;7365371;19;21442;-62
2022/09/09 10:55:13;;;;;;;0.00;0.00;;;;;;;23.19;64.43;100398.72;7363132;19;20031;-61
2022/09/09 10:57:52;;;;;;;0.00;0.00;;;;;;;23.15;64.88;100402.59;7262801;19;2004521;-61
2022/09/09 11:00:27;;;;;;;0.10;0.10;;;;;;;23.12;65.76;100408.16;7362009;19;20047;-61
2022/09/09 11:03:00;;;;;;;0.10;0.10;;;;;;;23.12;64.80;100402.84;7364669;19;20878;-61
2022/09/09 11:05:40;;;;;;;0.00;0.00;;;;;;;23.18;65.53;100402.34;7363815;19;20007;-61
2022/09/09 11:08:14;;;;;;;0.08;0.08;;;;;;;23.18;64.73;100397.88;7364231;19;20011;-60
2022/09/09 11:10:42;;;;;;;0.00;0.00;;;;;;;23.35;64.38;100412.47;7362482;19;20093;-61
2022/09/09 11:13:17;;;;;;;0.10;0.10;;;;;;;23.48;64.70;100410.53;7365664;19;20381;-61
2022/09/09 11:15:51;;;;;;;0.03;0.03;;;;;;;23.59;64.06;100425.66;7361239;19;20010;-61
2022/09/09 11:18:24;;;;;;;0.00;0.00;;;;;;;23.67;63.05;100420.56;7365426;19;20566;-61
2022/09/09 11:20:55;;;;;;;0.10;0.10;;;;;;;23.74;63.46;100420.91;7365012;19;20010;-61
2022/09/09 11:23:27;;;;;;;0.00;0.00;;;;;;;23.78;63.44;100427.69;7364996;19;20010;-60
2022/09/09 11:26:03;;;;;;;0.00;0.00;;;;;;;23.79;63.21;100419.56;7361891;19;20031;-61
2022/09/09 11:28:47;;;;;;;0.00;0.00;;;;;;;23.79;62.12;100429.38;7364336;19;20872;-62
2022/09/09 11:31:38;;;;;;;0.00;0.00;;;;;;;23.78;62.99;100431.19;7364401;19;20034;-61
2022/09/09 11:34:35;;;;;;;0.08;0.08;;;;;;;23.72;63.09;100433.50;7260910;19;2004314;-62
2022/09/09 11:37:21;;;;;;;0.00;0.00;;;;;;;23.66;63.15;100429.53;7262386;19;2004400;-62
2022/09/09 11:40:27;;;;;;;0.08;0.08;;;;;;;23.64;63.87;100435.97;7362564;19;20025;-61
2022/09/09 11:43:17;;;;;;;0.10;0.10;;;;;;;23.59;62.20;100438.97;7261961;19;2004502;-61
2022/09/09 11:45:51;;;;;;;0.10;0.10;;;;;;;23.53;63.23;100440.31;7364028;19;20047;-62
2022/09/09 11:48:45;;;;;;;0.03;0.03;;;;;;;23.50;63.66;100445.03;7362519;19;20499;-62
2022/09/09 11:51:20;;;;;;;0.00;0.00;;;;;;;23.45;63.93;100442.75;7259920;19;2004363;-62
2022/09/09 11:53:52;;;;;;;0.00;0.00;;;;;;;23.39;63.84;100445.06;7364031;19;20007;-61
2022/09/09 11:56:47;;;;;;;0.00;0.00;;;;;;;23.39;63.68;100448.56;7362638;19;20017;-61